createdAt,value
2019-02-11T00:00:22.487Z,0.63
2019-02-11T00:02:49.073Z,0.70
2019-02-11T00:05:15.452Z,0.80
2019-02-11T00:07:44.774Z,1.13
2019-02-11T00:10:11.330Z,0.80
2019-02-11T00:12:37.895Z,1.30
2019-02-11T00:15:04.749Z,0.70
2019-02-11T00:17:31.228Z,0.80
2019-02-11T00:19:57.766Z,1.17
2019-02-11T00:22:24.157Z,0.80
2019-02-11T00:24:50.612Z,0.77
2019-02-11T00:27:17.140Z,0.90
2019-02-11T00:29:43.607Z,0.90
2019-02-11T00:32:10.070Z,0.90
2019-02-11T00:34:36.448Z,0.93
2019-02-11T00:37:03.019Z,1.23
2019-02-11T00:39:29.378Z,0.93
2019-02-11T00:41:55.935Z,1.50
2019-02-11T00:44:22.394Z,0.80
2019-02-11T00:46:48.848Z,1.60
2019-02-11T00:49:15.360Z,1.20
2019-02-11T00:51:41.740Z,1.30
2019-02-11T00:54:08.219Z,1.47
2019-02-11T00:56:34.574Z,1.30
2019-02-11T00:59:01.064Z,1.53
2019-02-11T01:01:27.407Z,1.10
2019-02-11T01:03:53.875Z,1.70
2019-02-11T01:06:20.338Z,1.40
2019-02-11T01:08:46.807Z,1.17
2019-02-11T01:11:13.251Z,2.20
2019-02-11T01:13:39.719Z,1.20
2019-02-11T01:16:06.179Z,1.27
2019-02-11T01:18:32.652Z,1.97
2019-02-11T01:20:59.023Z,0.90
2019-02-11T01:23:25.524Z,1.57
2019-02-11T01:25:51.970Z,1.07
2019-02-11T01:28:18.501Z,1.10
2019-02-11T01:30:44.955Z,0.90
2019-02-11T01:33:11.394Z,1.00
2019-02-11T01:35:37.872Z,1.23
2019-02-11T01:38:04.250Z,0.70
2019-02-11T01:40:30.730Z,1.40
2019-02-11T01:42:57.275Z,1.03
2019-02-11T01:45:23.746Z,0.80
2019-02-11T01:47:50.208Z,0.83
2019-02-11T01:50:16.796Z,0.80
2019-02-11T01:52:43.239Z,0.93
2019-02-11T01:55:09.707Z,0.80
2019-02-11T01:57:36.168Z,0.80
2019-02-11T02:00:04.035Z,0.90
2019-02-11T02:02:30.484Z,1.00
2019-02-11T02:04:56.970Z,0.97
2019-02-11T02:07:23.440Z,1.33
2019-02-11T02:09:49.894Z,1.40
2019-02-11T02:12:16.360Z,1.23
2019-02-11T02:14:42.810Z,0.80
2019-02-11T02:17:09.314Z,0.90
2019-02-11T02:19:35.754Z,0.83
2019-02-11T02:22:02.225Z,0.90
2019-02-11T02:24:28.605Z,1.17
2019-02-11T02:26:54.980Z,1.00
2019-02-11T02:29:21.366Z,1.50
2019-02-11T02:31:47.934Z,0.90
2019-02-11T02:34:14.287Z,3.03
2019-02-11T02:36:40.751Z,0.73
2019-02-11T02:39:07.304Z,1.00
2019-02-11T02:41:33.779Z,1.10
2019-02-11T02:44:00.135Z,1.10
2019-02-11T02:46:26.709Z,0.90
2019-02-11T02:48:53.154Z,1.10
2019-02-11T02:51:19.633Z,0.70
2019-02-11T02:53:46.011Z,0.80
2019-02-11T02:56:12.495Z,1.23
2019-02-11T02:58:38.849Z,1.37
2019-02-11T03:01:05.294Z,1.20
2019-02-11T03:03:31.763Z,1.00
2019-02-11T03:05:58.212Z,2.63
2019-02-11T03:08:24.680Z,1.27
2019-02-11T03:10:51.054Z,1.23
2019-02-11T03:13:17.433Z,2.10
2019-02-11T03:15:43.871Z,3.30
2019-02-11T03:18:10.441Z,1.60
2019-02-11T03:20:36.885Z,1.67
2019-02-11T03:23:03.358Z,1.43
2019-02-11T03:25:29.825Z,1.50
2019-02-11T03:27:56.223Z,1.20
2019-02-11T03:30:22.685Z,1.77
2019-02-11T03:32:49.267Z,2.07
2019-02-11T03:35:15.715Z,1.43
2019-02-11T03:37:42.201Z,1.73
2019-02-11T03:40:08.763Z,1.90
2019-02-11T03:42:35.236Z,3.80
2019-02-11T03:45:02.183Z,2.13
2019-02-11T03:47:28.656Z,1.67
2019-02-11T03:49:55.114Z,1.90
2019-02-11T03:52:21.660Z,1.63
2019-02-11T03:54:48.222Z,1.43
2019-02-11T03:57:14.684Z,1.53
2019-02-11T03:59:41.212Z,1.80
2019-02-11T04:02:07.821Z,1.50
2019-02-11T04:04:34.344Z,2.17
2019-02-11T04:07:00.835Z,1.40
2019-02-11T04:09:27.376Z,2.00
2019-02-11T04:11:53.876Z,1.60
2019-02-11T04:14:24.902Z,1.47
2019-02-11T04:16:48.623Z,2.97
2019-02-11T04:19:15.159Z,2.60
2019-02-11T04:21:41.651Z,1.13
2019-02-11T04:24:08.268Z,1.23
2019-02-11T04:26:34.775Z,3.10
2019-02-11T04:29:01.339Z,1.23
2019-02-11T04:31:27.830Z,2.00
2019-02-11T04:33:54.239Z,2.10
2019-02-11T04:36:20.605Z,1.33
2019-02-11T04:38:47.155Z,1.70
2019-02-11T04:41:13.711Z,1.40
2019-02-11T04:43:40.160Z,1.30
2019-02-11T04:46:06.627Z,1.23
2019-02-11T04:48:33.186Z,1.20
2019-02-11T04:50:59.645Z,1.17
2019-02-11T04:53:26.138Z,2.03
2019-02-11T04:55:52.644Z,1.80
2019-02-11T04:58:19.079Z,1.30
2019-02-11T05:00:45.532Z,1.20
2019-02-11T05:03:12.032Z,2.37
2019-02-11T05:05:38.555Z,1.03
2019-02-11T05:08:04.953Z,1.50
2019-02-11T05:10:31.411Z,2.40
2019-02-11T05:12:57.969Z,1.73
2019-02-11T05:15:24.548Z,1.40
2019-02-11T05:17:51.096Z,1.83
2019-02-11T05:20:17.467Z,2.00
2019-02-11T05:22:43.920Z,1.63
2019-02-11T05:25:10.401Z,1.60
2019-02-11T05:27:36.930Z,1.77
2019-02-11T05:30:05.250Z,4.13
2019-02-11T05:32:31.684Z,1.77
2019-02-11T05:34:58.129Z,1.70
2019-02-11T05:37:24.601Z,1.40
2019-02-11T05:39:51.048Z,1.50
2019-02-11T05:42:17.515Z,1.50
2019-02-11T05:44:53.214Z,1.70
2019-02-11T05:47:12.244Z,1.70
2019-02-11T05:49:38.702Z,2.10
2019-02-11T05:52:05.066Z,1.80
2019-02-11T05:54:31.511Z,2.43
2019-02-11T05:56:57.976Z,4.27
2019-02-11T05:59:24.430Z,3.00
2019-02-11T06:01:50.796Z,3.47
2019-02-11T06:04:17.350Z,3.30
2019-02-11T06:06:43.810Z,4.70
2019-02-11T06:09:10.364Z,3.37
2019-02-11T06:11:36.850Z,4.43
2019-02-11T06:14:03.407Z,3.43
2019-02-11T06:16:30.031Z,4.17
2019-02-11T06:18:56.478Z,4.90
2019-02-11T06:21:22.954Z,3.50
2019-02-11T06:23:49.398Z,5.00
2019-02-11T06:26:15.774Z,4.63
2019-02-11T06:28:42.286Z,6.40
2019-02-11T06:31:08.737Z,4.87
2019-02-11T06:33:35.112Z,3.70
2019-02-11T06:36:01.562Z,5.03
2019-02-11T06:38:28.046Z,4.40
2019-02-11T06:40:54.422Z,4.17
2019-02-11T06:43:20.883Z,4.87
2019-02-11T06:45:47.224Z,4.33
2019-02-11T06:48:13.604Z,4.33
2019-02-11T06:50:40.059Z,4.17
2019-02-11T06:53:06.540Z,4.87
2019-02-11T06:55:32.984Z,3.80
2019-02-11T06:57:59.463Z,3.77
2019-02-11T07:00:25.916Z,4.40
2019-02-11T07:02:52.374Z,3.60
2019-02-11T07:05:18.822Z,3.40
2019-02-11T07:07:45.294Z,3.77
2019-02-11T07:10:11.749Z,4.47
2019-02-11T07:12:38.214Z,5.27
2019-02-11T07:15:06.466Z,3.30
2019-02-11T07:17:33.043Z,2.47
2019-02-11T07:19:59.414Z,3.53
2019-02-11T07:22:25.959Z,3.73
2019-02-11T07:24:52.541Z,3.30
2019-02-11T07:27:18.983Z,3.87
2019-02-11T07:29:45.487Z,2.80
2019-02-11T07:32:11.931Z,3.47
2019-02-11T07:34:38.504Z,2.50
2019-02-11T07:37:04.884Z,3.33
2019-02-11T07:39:31.339Z,3.90
2019-02-11T07:41:59.694Z,2.77
2019-02-11T07:44:27.962Z,3.20
2019-02-11T07:46:54.424Z,3.23
2019-02-11T07:49:20.891Z,2.87
2019-02-11T07:51:47.443Z,3.00
2019-02-11T07:54:13.823Z,3.00
2019-02-11T07:56:40.172Z,4.67
2019-02-11T07:59:06.651Z,3.03
2019-02-11T08:01:33.095Z,4.37
2019-02-11T08:03:59.685Z,3.30
2019-02-11T08:06:26.038Z,5.73
2019-02-11T08:08:52.530Z,4.07
2019-02-11T08:11:18.886Z,3.17
2019-02-11T08:13:45.398Z,4.13
2019-02-11T08:16:11.746Z,3.87
2019-02-11T08:18:38.296Z,4.63
2019-02-11T08:21:04.867Z,5.43
2019-02-11T08:23:31.315Z,6.67
2019-02-11T08:25:57.783Z,7.13
2019-02-11T08:28:24.424Z,5.43
2019-02-11T08:30:51.007Z,3.90
2019-02-11T08:33:17.542Z,4.43
2019-02-11T08:35:43.990Z,4.87
2019-02-11T08:38:10.442Z,6.20
2019-02-11T08:40:36.823Z,4.13
2019-02-11T08:43:03.175Z,3.37
2019-02-11T08:45:29.550Z,4.80
2019-02-11T08:47:55.890Z,4.73
2019-02-11T08:50:22.471Z,4.30
2019-02-11T08:52:48.928Z,5.47
2019-02-11T08:55:15.290Z,4.80
2019-02-11T08:57:41.660Z,3.53
2019-02-11T09:00:09.354Z,4.43
2019-02-11T09:02:35.998Z,5.83
2019-02-11T09:05:02.984Z,5.87
2019-02-11T09:07:29.338Z,3.97
2019-02-11T09:09:55.910Z,4.97
2019-02-11T09:12:22.466Z,3.53
2019-02-11T09:14:48.842Z,4.27
2019-02-11T09:17:15.199Z,3.27
2019-02-11T09:19:41.647Z,6.60
2019-02-11T09:22:08.014Z,5.43
2019-02-11T09:24:34.951Z,3.53
2019-02-11T09:27:01.537Z,3.47
2019-02-11T09:29:28.126Z,4.17
2019-02-11T09:31:54.491Z,4.83
2019-02-11T09:34:20.938Z,4.27
2019-02-11T09:36:47.600Z,3.40
2019-02-11T09:39:14.048Z,3.47
2019-02-11T09:41:40.537Z,4.33
2019-02-11T09:44:06.992Z,4.40
2019-02-11T09:46:33.367Z,6.60
2019-02-11T09:48:59.754Z,3.47
2019-02-11T09:51:26.560Z,6.67
2019-02-11T09:53:53.096Z,7.23
2019-02-11T09:56:19.586Z,6.47
2019-02-11T09:58:45.949Z,4.97
2019-02-11T10:01:12.523Z,5.47
2019-02-11T10:03:38.976Z,5.43
2019-02-11T10:06:05.456Z,6.17
2019-02-11T10:08:31.803Z,4.10
2019-02-11T10:10:58.183Z,3.83
2019-02-11T10:13:24.641Z,7.33
2019-02-11T10:15:51.288Z,7.07
2019-02-11T10:18:17.752Z,7.57
2019-02-11T10:20:44.203Z,5.93
2019-02-11T10:23:10.779Z,5.77
2019-02-11T10:25:37.389Z,10.27
2019-02-11T10:28:05.459Z,6.33
2019-02-11T10:30:32.034Z,6.57
2019-02-11T10:32:58.610Z,7.30
2019-02-11T10:35:25.173Z,6.93
2019-02-11T10:37:51.751Z,8.80
2019-02-11T10:40:18.199Z,11.77
2019-02-11T10:42:44.642Z,7.73
2019-02-11T10:45:12.283Z,5.90
2019-02-11T10:47:39.750Z,6.73
2019-02-11T10:50:07.803Z,4.70
2019-02-11T10:52:34.293Z,6.33
2019-02-11T10:55:00.855Z,5.03
2019-02-11T10:57:27.419Z,8.33
2019-02-11T10:59:53.994Z,5.10
2019-02-11T11:02:20.463Z,5.90
2019-02-11T11:04:46.866Z,7.50
2019-02-11T11:07:13.414Z,6.80
2019-02-11T11:09:39.788Z,6.27
2019-02-11T11:12:06.646Z,5.60
2019-02-11T11:14:33.118Z,8.33
2019-02-11T11:16:59.571Z,7.53
2019-02-11T11:19:26.173Z,5.03
2019-02-11T11:21:52.644Z,9.53
2019-02-11T11:24:19.202Z,6.90
2019-02-11T11:26:45.656Z,7.37
2019-02-11T11:29:12.161Z,6.27
2019-02-11T11:31:38.765Z,9.37
2019-02-11T11:34:05.227Z,14.63
2019-02-11T11:36:31.791Z,10.73
2019-02-11T11:38:58.359Z,6.17
2019-02-11T11:41:24.861Z,5.63
2019-02-11T11:43:51.503Z,9.47
2019-02-11T11:46:17.851Z,4.67
2019-02-11T11:48:44.320Z,5.30
2019-02-11T11:51:10.737Z,4.30
2019-02-11T11:53:37.087Z,6.67
2019-02-11T11:56:03.564Z,5.00
2019-02-11T11:58:30.003Z,5.53
2019-02-11T12:00:56.501Z,5.70
2019-02-11T12:03:22.947Z,6.63
2019-02-11T12:05:49.405Z,4.47
2019-02-11T12:08:15.795Z,7.77
2019-02-11T12:10:42.338Z,7.83
2019-02-11T12:13:22.551Z,7.03
2019-02-11T12:15:38.042Z,3.13
2019-02-11T12:18:04.619Z,5.67
2019-02-11T12:20:33.496Z,7.17
2019-02-11T12:22:59.346Z,5.17
2019-02-11T12:25:25.799Z,6.87
2019-02-11T12:27:52.357Z,4.33
2019-02-11T12:30:20.656Z,6.77
2019-02-11T12:32:47.108Z,6.43
2019-02-11T12:35:13.680Z,9.23
2019-02-11T12:37:40.056Z,7.60
2019-02-11T12:40:07.735Z,4.13
2019-02-11T12:42:34.289Z,7.23
2019-02-11T12:45:00.947Z,5.83
2019-02-11T12:47:27.527Z,7.00
2019-02-11T12:49:53.969Z,5.80
2019-02-11T12:52:20.413Z,6.20
2019-02-11T12:54:46.882Z,6.60
2019-02-11T12:57:13.462Z,2.97
2019-02-11T12:59:39.867Z,4.67
2019-02-11T13:02:06.448Z,3.93
2019-02-11T13:04:32.895Z,9.20
2019-02-11T13:06:59.325Z,4.37
2019-02-11T13:09:25.824Z,4.13
2019-02-11T13:11:52.385Z,2.40
2019-02-11T13:14:19.165Z,6.50
2019-02-11T13:16:45.650Z,4.07
2019-02-11T13:19:12.009Z,3.43
2019-02-11T13:21:38.584Z,3.40
2019-02-11T13:24:05.142Z,2.70
2019-02-11T13:26:31.690Z,4.23
2019-02-11T13:28:58.288Z,6.23
2019-02-11T13:31:24.906Z,4.63
2019-02-11T13:33:51.473Z,2.47
2019-02-11T13:36:17.942Z,4.83
2019-02-11T13:38:44.410Z,3.83
2019-02-11T13:41:10.873Z,6.93
2019-02-11T13:43:37.422Z,4.10
2019-02-11T13:46:03.973Z,4.40
2019-02-11T13:48:33.752Z,3.40
2019-02-11T13:50:59.337Z,3.70
2019-02-11T13:53:25.905Z,3.67
2019-02-11T13:55:52.352Z,6.13
2019-02-11T13:58:18.938Z,2.87
2019-02-11T14:00:49.782Z,3.83
2019-02-11T14:03:13.699Z,3.33
2019-02-11T14:05:40.377Z,7.10
2019-02-11T14:08:06.941Z,4.70
2019-02-11T14:10:33.450Z,3.30
2019-02-11T14:13:00.235Z,4.10
2019-02-11T14:15:26.859Z,7.07
2019-02-11T14:18:11.006Z,4.20
2019-02-11T14:20:22.671Z,8.00
2019-02-11T14:22:49.115Z,6.00
2019-02-11T14:25:15.587Z,5.97
2019-02-11T14:27:42.095Z,4.97
2019-02-11T14:30:10.522Z,3.47
2019-02-11T14:32:37.480Z,3.80
2019-02-11T14:35:07.611Z,3.83
2019-02-11T14:37:34.258Z,5.90
2019-02-11T14:40:00.867Z,5.13
2019-02-11T14:42:27.422Z,4.23
2019-02-11T14:44:54.633Z,2.83
2019-02-11T14:47:21.115Z,2.90
2019-02-11T14:49:47.664Z,4.40
2019-02-11T14:52:14.226Z,2.70
2019-02-11T14:54:40.598Z,8.53
2019-02-11T14:57:06.967Z,3.13
2019-02-11T14:59:33.364Z,5.17
2019-02-11T15:02:00.041Z,4.70
2019-02-11T15:04:26.404Z,8.70
2019-02-11T15:06:52.776Z,4.97
2019-02-11T15:09:19.385Z,2.83
2019-02-11T15:11:46.181Z,2.40
2019-02-11T15:14:12.796Z,2.30
2019-02-11T15:16:39.207Z,3.73
2019-02-11T15:19:05.811Z,2.73
2019-02-11T15:21:32.175Z,2.03
2019-02-11T15:23:58.634Z,5.03
2019-02-11T15:26:25.228Z,3.17
2019-02-11T15:28:51.743Z,4.20
2019-02-11T15:31:18.317Z,4.17
2019-02-11T15:33:44.659Z,3.23
2019-02-11T15:36:11.029Z,6.23
2019-02-11T15:38:37.389Z,3.23
2019-02-11T15:41:04.010Z,4.60
2019-02-11T15:43:30.694Z,3.37
2019-02-11T15:45:57.268Z,3.80
2019-02-11T15:48:23.836Z,3.03
2019-02-11T15:50:50.253Z,2.53
2019-02-11T15:53:16.695Z,1.90
2019-02-11T15:55:43.158Z,3.43
2019-02-11T15:58:09.729Z,5.13
2019-02-11T16:00:36.324Z,5.03
2019-02-11T16:03:02.875Z,5.37
2019-02-11T16:05:29.339Z,1.77
2019-02-11T16:07:55.895Z,2.90
2019-02-11T16:10:23.673Z,3.83
2019-02-11T16:12:50.235Z,3.57
2019-02-11T16:15:16.682Z,4.80
2019-02-11T16:17:43.098Z,4.70
2019-02-11T16:20:10.756Z,5.63
2019-02-11T16:22:37.233Z,4.53
2019-02-11T16:25:05.115Z,7.97
2019-02-11T16:27:31.628Z,2.47
2019-02-11T16:29:58.010Z,7.23
2019-02-11T16:32:24.372Z,4.47
2019-02-11T16:34:50.769Z,7.23
2019-02-11T16:37:17.127Z,2.40
2019-02-11T16:39:43.483Z,4.47
2019-02-11T16:42:09.847Z,4.50
2019-02-11T16:44:36.341Z,3.53
2019-02-11T16:47:03.426Z,2.50
2019-02-11T16:49:29.975Z,4.33
2019-02-11T16:51:56.343Z,3.20
2019-02-11T16:54:22.895Z,6.30
2019-02-11T16:56:49.443Z,4.37
2019-02-11T16:59:16.009Z,3.20
2019-02-11T17:01:42.355Z,4.07
2019-02-11T17:04:08.881Z,5.67
2019-02-11T17:06:35.322Z,7.37
2019-02-11T17:09:02.007Z,8.17
2019-02-11T17:11:28.465Z,7.43
2019-02-11T17:13:54.819Z,4.67
2019-02-11T17:16:21.263Z,6.40
2019-02-11T17:18:47.876Z,5.57
2019-02-11T17:21:14.332Z,8.30
2019-02-11T17:23:40.932Z,5.70
2019-02-11T17:26:07.377Z,5.57
2019-02-11T17:28:33.856Z,6.80
2019-02-11T17:31:00.528Z,10.47
2019-02-11T17:33:26.904Z,7.37
2019-02-11T17:35:53.396Z,8.27
2019-02-11T17:38:19.759Z,6.00
2019-02-11T17:40:46.360Z,3.87
2019-02-11T17:43:12.715Z,5.77
2019-02-11T17:45:39.168Z,4.57
2019-02-11T17:48:05.672Z,5.10
2019-02-11T17:50:32.979Z,3.47
2019-02-11T17:53:01.177Z,3.80
2019-02-11T17:55:27.656Z,4.90
2019-02-11T17:57:54.096Z,4.27
2019-02-11T18:00:24.288Z,6.50
2019-02-11T18:02:50.840Z,7.60
2019-02-11T18:05:17.319Z,7.53
2019-02-11T18:07:43.673Z,5.07
2019-02-11T18:10:10.081Z,3.30
2019-02-11T18:12:36.540Z,5.93
2019-02-11T18:15:04.146Z,7.27
2019-02-11T18:17:30.555Z,4.73
2019-02-11T18:19:57.148Z,4.67
2019-02-11T18:22:23.603Z,4.63
2019-02-11T18:24:49.989Z,6.30
2019-02-11T18:27:16.348Z,3.53
2019-02-11T18:29:42.755Z,4.67
2019-02-11T18:32:09.216Z,5.47
2019-02-11T18:34:35.680Z,4.80
2019-02-11T18:37:02.251Z,5.50
2019-02-11T18:39:28.723Z,6.43
2019-02-11T18:41:55.171Z,6.40
2019-02-11T18:44:21.664Z,5.70
2019-02-11T18:46:48.110Z,7.17
2019-02-11T18:49:14.497Z,3.13
2019-02-11T18:51:41.102Z,3.20
2019-02-11T18:54:07.543Z,7.33
2019-02-11T18:56:33.931Z,6.73
2019-02-11T18:59:02.276Z,4.40
2019-02-11T19:01:28.859Z,9.90
2019-02-11T19:03:55.415Z,5.80
2019-02-11T19:06:22.017Z,5.77
2019-02-11T19:08:48.388Z,6.20
2019-02-11T19:11:17.510Z,12.87
2019-02-11T19:13:43.980Z,6.77
2019-02-11T19:16:10.338Z,9.27
2019-02-11T19:18:36.899Z,8.33
2019-02-11T19:21:03.469Z,5.27
2019-02-11T19:23:30.023Z,8.37
2019-02-11T19:25:56.513Z,7.73
2019-02-11T19:28:22.962Z,6.77
2019-02-11T19:30:49.481Z,6.90
2019-02-11T19:33:15.831Z,7.23
2019-02-11T19:35:42.204Z,4.97
2019-02-11T19:38:08.563Z,4.47
2019-02-11T19:40:35.210Z,6.17
2019-02-11T19:43:01.585Z,5.30
2019-02-11T19:45:28.043Z,3.23
2019-02-11T19:47:54.423Z,6.83
2019-02-11T19:50:20.871Z,5.80
2019-02-11T19:52:47.455Z,11.40
2019-02-11T19:55:14.301Z,5.17
2019-02-11T19:57:40.655Z,5.43
2019-02-11T20:00:09.007Z,4.70
2019-02-11T20:02:35.608Z,4.63
2019-02-11T20:05:02.362Z,4.00
2019-02-11T20:07:28.837Z,3.17
2019-02-11T20:09:55.179Z,6.90
2019-02-11T20:12:21.775Z,4.97
2019-02-11T20:14:48.147Z,4.87
2019-02-11T20:17:14.511Z,6.27
2019-02-11T20:19:41.064Z,5.60
2019-02-11T20:22:08.043Z,4.43
2019-02-11T20:24:34.392Z,7.50
2019-02-11T20:27:00.762Z,5.07
2019-02-11T20:29:27.344Z,4.07
2019-02-11T20:31:53.729Z,4.63
2019-02-11T20:34:20.181Z,11.90
2019-02-11T20:36:46.731Z,9.20
2019-02-11T20:39:13.243Z,3.13
2019-02-11T20:41:39.594Z,10.07
2019-02-11T20:44:06.049Z,6.27
2019-02-11T20:46:32.595Z,2.67
2019-02-11T20:48:59.060Z,4.43
2019-02-11T20:51:25.709Z,6.43
2019-02-11T20:53:52.083Z,7.20
2019-02-11T20:56:18.499Z,7.70
2019-02-11T20:58:45.082Z,5.17
2019-02-11T21:01:11.427Z,6.80
2019-02-11T21:03:38.023Z,7.23
2019-02-11T21:06:04.501Z,5.10
2019-02-11T21:08:31.081Z,11.47
2019-02-11T21:10:57.523Z,6.93
2019-02-11T21:13:24.099Z,7.37
2019-02-11T21:15:50.548Z,5.53
2019-02-11T21:18:16.931Z,11.23
2019-02-11T21:20:44.020Z,4.37
2019-02-11T21:23:10.373Z,4.53
2019-02-11T21:25:36.958Z,4.40
2019-02-11T21:28:03.516Z,5.63
2019-02-11T21:30:29.895Z,8.03
2019-02-11T21:32:56.442Z,6.63
2019-02-11T21:35:23.557Z,9.23
2019-02-11T21:37:50.100Z,7.37
2019-02-11T21:40:16.568Z,6.60
2019-02-11T21:42:44.556Z,7.93
2019-02-11T21:45:12.509Z,8.53
2019-02-11T21:47:38.923Z,6.27
2019-02-11T21:50:06.990Z,9.57
2019-02-11T21:52:33.539Z,6.77
2019-02-11T21:55:00.024Z,7.60
2019-02-11T21:57:26.383Z,8.43
2019-02-11T21:59:52.842Z,15.43
2019-02-11T22:02:19.299Z,7.57
2019-02-11T22:04:45.692Z,7.70
2019-02-11T22:07:12.135Z,4.53
2019-02-11T22:09:38.609Z,12.53
2019-02-11T22:12:04.957Z,8.17
2019-02-11T22:14:31.302Z,8.57
2019-02-11T22:16:57.683Z,9.07
2019-02-11T22:19:24.898Z,9.43
2019-02-11T22:21:51.419Z,7.67
2019-02-11T22:24:17.885Z,11.77
2019-02-11T22:26:44.235Z,6.07
2019-02-11T22:29:10.611Z,5.07
2019-02-11T22:31:37.023Z,4.20
2019-02-11T22:34:03.476Z,4.10
2019-02-11T22:36:29.844Z,8.47
2019-02-11T22:38:56.395Z,11.90
2019-02-11T22:41:22.751Z,7.73
2019-02-11T22:43:49.298Z,11.50
2019-02-11T22:46:15.666Z,9.37
2019-02-11T22:48:42.014Z,6.37
2019-02-11T22:51:08.618Z,5.50
2019-02-11T22:53:35.062Z,9.30
2019-02-11T22:56:01.538Z,9.07
2019-02-11T22:58:28.011Z,11.53
2019-02-11T23:00:56.881Z,9.67
2019-02-11T23:03:23.495Z,7.17
2019-02-11T23:05:49.937Z,9.27
2019-02-11T23:08:16.570Z,8.37
2019-02-11T23:10:43.085Z,9.37
2019-02-11T23:13:09.616Z,11.30
2019-02-11T23:15:35.985Z,13.03
2019-02-11T23:18:02.475Z,10.13
2019-02-11T23:20:28.927Z,8.53
2019-02-11T23:22:55.495Z,8.57
2019-02-11T23:25:21.946Z,9.60
2019-02-11T23:27:48.499Z,9.20
2019-02-11T23:30:15.000Z,8.67
2019-02-11T23:32:41.592Z,7.47
2019-02-11T23:35:07.917Z,11.80
2019-02-11T23:37:34.401Z,10.90
2019-02-11T23:40:00.851Z,9.17
2019-02-11T23:42:27.320Z,9.43
2019-02-11T23:44:53.803Z,7.57
2019-02-11T23:47:20.478Z,7.57
2019-02-11T23:49:47.026Z,6.37
2019-02-11T23:52:13.474Z,5.60
2019-02-11T23:54:39.938Z,8.67
2019-02-11T23:57:06.547Z,6.23
2019-02-11T23:59:33.022Z,12.50
